Time;durP1;ratioP1;P1;durP2;ratioP2;P2;SDS_P1;SDS_P2;PMS_P1;PMS_P2;Temp;Humidity;BMP_temperature;BMP_pressure;BME280_temperature;BME280_humidity;BME280_pressure;Samples;Min_cycle;Max_cycle;Signal;HPM_P1;HPM_P2
2023/04/16 00:01:33;;;;;;;;;;;9.80;90.50;;;;;;5061466;28;19933;-78
2023/04/16 00:03:59;;;;;;;;;;;9.80;90.50;;;;;;5062775;28;19928;-77
2023/04/16 00:06:26;;;;;;;;;;;9.80;90.50;;;;;;5064134;28;19929;-77
2023/04/16 00:08:53;;;;;;;;;;;9.80;90.50;;;;;;5062924;28;21066;-77
2023/04/16 00:11:19;;;;;;;;;;;9.80;90.50;;;;;;5062107;28;19935;-77
2023/04/16 00:13:47;;;;;;;;;;;9.80;90.50;;;;;;5058723;28;19935;-77
2023/04/16 00:16:14;;;;;;;;;;;9.80;90.50;;;;;;5057939;28;19979;-77
2023/04/16 00:18:40;;;;;;;;;;;9.80;90.60;;;;;;5059432;28;19932;-77
2023/04/16 00:21:07;;;;;;;;;;;9.70;90.60;;;;;;5065299;28;19951;-77
2023/04/16 00:23:34;;;;;;;;;;;9.70;90.70;;;;;;5062529;28;20648;-77
2023/04/16 00:26:00;;;;;;;;;;;9.80;90.70;;;;;;5060739;28;20492;-77
2023/04/16 00:28:27;;;;;;;;;;;9.70;90.70;;;;;;5068111;28;19936;-77
2023/04/16 00:30:55;;;;;;;;;;;9.70;90.70;;;;;;5059421;28;19928;-77
2023/04/16 00:33:22;;;;;;;;;;;9.70;90.70;;;;;;5061081;28;20318;-76
2023/04/16 00:35:48;;;;;;;;;;;9.70;90.80;;;;;;5062244;28;19936;-77
2023/04/16 00:38:15;;;;;;;;;;;9.70;90.80;;;;;;5059896;28;19936;-76
2023/04/16 00:40:42;;;;;;;;;;;9.70;90.80;;;;;;5065912;28;19940;-76
2023/04/16 00:43:08;;;;;;;;;;;9.70;91.20;;;;;;5061555;28;20006;-76
2023/04/16 00:45:35;;;;;;;;;;;9.70;90.90;;;;;;5063550;28;20394;-76
2023/04/16 00:48:03;;;;;;;;;;;9.70;90.90;;;;;;5064513;28;19932;-76
2023/04/16 00:50:30;;;;;;;;;;;9.70;90.90;;;;;;5065651;28;19932;-76
2023/04/16 00:52:56;;;;;;;;;;;9.70;90.90;;;;;;5062346;28;19928;-77
2023/04/16 00:55:23;;;;;;;;;;;9.70;90.90;;;;;;5060995;28;19932;-76
2023/04/16 00:57:50;;;;;;;;;;;9.70;90.90;;;;;;5064516;28;19929;-77
2023/04/16 01:00:16;;;;;;;;;;;9.60;90.90;;;;;;5061203;28;20520;-77
2023/04/16 01:02:43;;;;;;;;;;;9.60;90.90;;;;;;5063069;28;19935;-76
2023/04/16 01:05:11;;;;;;;;;;;9.60;90.90;;;;;;5065801;28;19935;-75
2023/04/16 01:07:38;;;;;;;;;;;9.70;90.90;;;;;;5060343;28;19929;-77
2023/04/16 01:10:04;;;;;;;;;;;9.60;90.90;;;;;;5063634;28;19932;-76
2023/04/16 01:12:31;;;;;;;;;;;9.60;90.90;;;;;;5064086;28;19940;-76
2023/04/16 01:14:58;;;;;;;;;;;9.60;90.90;;;;;;5064341;28;19964;-77
2023/04/16 01:17:24;;;;;;;;;;;9.70;90.90;;;;;;5060681;28;19928;-76
2023/04/16 01:19:51;;;;;;;;;;;9.60;90.80;;;;;;5068703;28;19936;-76
2023/04/16 01:22:19;;;;;;;;;;;9.60;90.90;;;;;;5068160;28;19928;-77
2023/04/16 01:24:46;;;;;;;;;;;9.70;90.90;;;;;;5062500;28;19932;-78
2023/04/16 01:27:12;;;;;;;;;;;9.60;90.90;;;;;;5062402;28;19929;-77
2023/04/16 01:29:39;;;;;;;;;;;9.60;90.90;;;;;;5066426;28;20476;-77
2023/04/16 01:32:05;;;;;;;;;;;9.60;90.90;;;;;;5057568;28;19959;-76
2023/04/16 01:34:32;;;;;;;;;;;9.60;90.90;;;;;;5062066;28;19929;-77
2023/04/16 01:36:58;;;;;;;;;;;9.60;90.90;;;;;;5061076;28;19932;-78
2023/04/16 01:39:26;;;;;;;;;;;9.60;90.90;;;;;;5061036;28;19939;-77
2023/04/16 01:41:53;;;;;;;;;;;9.60;90.90;;;;;;5062303;28;19940;-77
2023/04/16 01:44:20;;;;;;;;;;;9.60;90.90;;;;;;5061575;28;19935;-77
2023/04/16 01:46:47;;;;;;;;;;;9.60;90.90;;;;;;5059504;28;19932;-78
2023/04/16 01:49:13;;;;;;;;;;;9.60;90.90;;;;;;5064615;28;19940;-77
2023/04/16 01:51:40;;;;;;;;;;;9.60;90.90;;;;;;5058347;28;19937;-78
2023/04/16 01:54:07;;;;;;;;;;;9.60;90.90;;;;;;5063106;28;19928;-76
2023/04/16 01:56:35;;;;;;;;;;;9.60;90.90;;;;;;5061224;28;19962;-76
2023/04/16 01:59:02;;;;;;;;;;;9.60;90.90;;;;;;5057709;28;19928;-76
2023/04/16 02:01:29;;;;;;;;;;;9.60;91.00;;;;;;5061112;28;19939;-78
2023/04/16 02:03:56;;;;;;;;;;;9.50;91.00;;;;;;5060245;28;19936;-76
2023/04/16 02:06:22;;;;;;;;;;;9.50;91.00;;;;;;5058050;28;19929;-77
2023/04/16 02:08:49;;;;;;;;;;;9.60;91.00;;;;;;5064773;28;19943;-77
2023/04/16 02:11:16;;;;;;;;;;;9.60;91.00;;;;;;5067633;28;20326;-77
2023/04/16 02:13:44;;;;;;;;;;;9.50;91.00;;;;;;5060616;28;19931;-75
2023/04/16 02:16:10;;;;;;;;;;;9.50;91.00;;;;;;5061615;28;19925;-76
2023/04/16 02:18:37;;;;;;;;;;;9.50;91.10;;;;;;5058299;28;19978;-76
2023/04/16 02:21:05;;;;;;;;;;;9.50;91.10;;;;;;5061622;28;19932;-76
2023/04/16 02:23:31;;;;;;;;;;;9.50;91.10;;;;;;5061112;28;19934;-76
2023/04/16 02:25:58;;;;;;;;;;;9.50;91.20;;;;;;5058635;28;19928;-77
2023/04/16 02:28:24;;;;;;;;;;;9.50;91.20;;;;;;5061485;28;19974;-77
2023/04/16 02:30:52;;;;;;;;;;;9.50;91.20;;;;;;5060696;28;20140;-77
2023/04/16 02:33:19;;;;;;;;;;;9.50;91.20;;;;;;5060918;28;20100;-77
2023/04/16 02:35:47;;;;;;;;;;;9.50;91.20;;;;;;5058432;28;19936;-77
2023/04/16 02:38:13;;;;;;;;;;;9.50;91.20;;;;;;5058581;28;19936;-77
2023/04/16 02:40:40;;;;;;;;;;;9.50;91.20;;;;;;5053688;28;20406;-77
2023/04/16 02:43:07;;;;;;;;;;;9.50;91.20;;;;;;5056879;28;19928;-77
2023/04/16 02:45:33;;;;;;;;;;;9.50;91.20;;;;;;5061229;28;19974;-76
2023/04/16 02:48:01;;;;;;;;;;;9.50;91.30;;;;;;5064519;28;19929;-76
2023/04/16 02:50:28;;;;;;;;;;;9.50;91.40;;;;;;5055494;28;19962;-76
2023/04/16 02:52:54;;;;;;;;;;;9.50;91.40;;;;;;5060569;28;19933;-76
2023/04/16 02:55:21;;;;;;;;;;;9.50;91.40;;;;;;5067936;28;19929;-76
2023/04/16 02:57:47;;;;;;;;;;;9.50;91.40;;;;;;5065329;28;19935;-76
2023/04/16 03:00:14;;;;;;;;;;;9.50;91.40;;;;;;5064152;28;19955;-76
2023/04/16 03:02:41;;;;;;;;;;;9.50;91.40;;;;;;5064663;28;19928;-75
2023/04/16 03:05:09;;;;;;;;;;;9.50;91.40;;;;;;5061927;28;20023;-76
2023/04/16 03:07:38;;;;;;;;;;;9.40;91.40;;;;;;5059462;28;20032;-75
2023/04/16 03:10:05;;;;;;;;;;;9.50;91.40;;;;;;5062886;28;20378;-76
2023/04/16 03:12:31;;;;;;;;;;;9.40;91.50;;;;;;5063651;28;20464;-75
2023/04/16 03:14:58;;;;;;;;;;;9.40;91.50;;;;;;5060220;28;19928;-76
2023/04/16 03:17:24;;;;;;;;;;;9.40;91.50;;;;;;5059563;28;19928;-75
2023/04/16 03:19:51;;;;;;;;;;;9.50;91.50;;;;;;5062591;28;20345;-76
2023/04/16 03:22:19;;;;;;;;;;;9.40;91.50;;;;;;5059757;28;19950;-76
2023/04/16 03:24:45;;;;;;;;;;;9.40;91.90;;;;;;5066124;28;20487;-76
2023/04/16 03:27:12;;;;;;;;;;;9.40;91.60;;;;;;5061771;28;20410;-76
2023/04/16 03:29:38;;;;;;;;;;;9.40;91.60;;;;;;5065695;28;20407;-75
2023/04/16 03:32:05;;;;;;;;;;;9.40;91.60;;;;;;5060856;28;20417;-75
2023/04/16 03:34:32;;;;;;;;;;;9.40;91.60;;;;;;5061299;28;19929;-75
2023/04/16 03:36:59;;;;;;;;;;;9.40;91.90;;;;;;5060262;28;19928;-76
2023/04/16 03:39:26;;;;;;;;;;;9.40;91.60;;;;;;5063103;28;19935;-75
2023/04/16 03:41:53;;;;;;;;;;;9.40;91.60;;;;;;5060022;28;19936;-76
2023/04/16 03:44:19;;;;;;;;;;;9.40;91.60;;;;;;5061293;28;19932;-75
2023/04/16 03:46:46;;;;;;;;;;;9.40;91.60;;;;;;5060529;28;19936;-76
2023/04/16 03:49:13;;;;;;;;;;;9.40;91.70;;;;;;5068576;28;19928;-75
2023/04/16 03:51:39;;;;;;;;;;;9.40;91.70;;;;;;5063647;28;20477;-77
2023/04/16 03:54:06;;;;;;;;;;;9.30;91.70;;;;;;5068991;28;20420;-76
2023/04/16 03:56:34;;;;;;;;;;;9.40;91.70;;;;;;5071460;28;19932;-73
2023/04/16 03:59:00;;;;;;;;;;;9.40;91.70;;;;;;5062660;28;19932;-76
2023/04/16 04:01:27;;;;;;;;;;;9.40;91.70;;;;;;5069741;28;19933;-76
2023/04/16 04:03:53;;;;;;;;;;;9.30;91.70;;;;;;5072358;28;19932;-76
2023/04/16 04:06:20;;;;;;;;;;;9.30;91.70;;;;;;5069494;28;19928;-76
2023/04/16 04:08:46;;;;;;;;;;;9.40;91.70;;;;;;5064698;28;19935;-76
2023/04/16 04:11:13;;;;;;;;;;;9.30;91.70;;;;;;5065573;28;19932;-75
2023/04/16 04:13:41;;;;;;;;;;;9.30;91.70;;;;;;5057613;28;19928;-76
2023/04/16 04:16:07;;;;;;;;;;;9.30;91.70;;;;;;5066093;28;19948;-76
2023/04/16 04:18:34;;;;;;;;;;;9.30;91.70;;;;;;5064553;28;19936;-76
2023/04/16 04:21:04;;;;;;;;;;;9.30;91.70;;;;;;5067666;28;19936;-76
2023/04/16 04:23:30;;;;;;;;;;;9.30;91.70;;;;;;5065438;28;19932;-76
2023/04/16 04:25:58;;;;;;;;;;;9.30;91.70;;;;;;5063708;28;19924;-76
2023/04/16 04:28:25;;;;;;;;;;;9.30;91.70;;;;;;5062014;28;19932;-76
2023/04/16 04:30:52;;;;;;;;;;;9.30;91.70;;;;;;5064160;28;19924;-76
2023/04/16 04:33:19;;;;;;;;;;;9.30;91.80;;;;;;5057436;28;19935;-76
2023/04/16 04:35:45;;;;;;;;;;;9.30;91.80;;;;;;5058828;28;20310;-74
2023/04/16 04:38:12;;;;;;;;;;;9.30;91.80;;;;;;5064693;28;20654;-75
2023/04/16 04:40:39;;;;;;;;;;;9.30;91.80;;;;;;5070353;28;19932;-76
2023/04/16 04:43:05;;;;;;;;;;;9.30;91.80;;;;;;5062256;28;19936;-75
2023/04/16 04:45:32;;;;;;;;;;;9.30;91.80;;;;;;5063345;28;19924;-74
2023/04/16 04:47:59;;;;;;;;;;;9.30;91.90;;;;;;5073051;28;19928;-75
2023/04/16 04:50:26;;;;;;;;;;;9.20;91.90;;;;;;5070997;28;19932;-74
2023/04/16 04:52:53;;;;;;;;;;;9.30;91.90;;;;;;5053314;28;19940;-75
2023/04/16 04:55:19;;;;;;;;;;;9.30;91.90;;;;;;5065425;28;20301;-75
2023/04/16 04:57:46;;;;;;;;;;;9.20;92.00;;;;;;5067735;28;20030;-76
2023/04/16 05:00:12;;;;;;;;;;;9.20;92.00;;;;;;5060377;28;19940;-76
2023/04/16 05:02:39;;;;;;;;;;;9.20;92.00;;;;;;5063827;28;19933;-76
2023/04/16 05:05:07;;;;;;;;;;;9.20;92.00;;;;;;5058741;28;20716;-76
2023/04/16 05:07:34;;;;;;;;;;;9.20;92.00;;;;;;5065204;28;19935;-76
2023/04/16 05:10:01;;;;;;;;;;;9.20;92.00;;;;;;5066471;28;20058;-76
2023/04/16 05:12:27;;;;;;;;;;;9.20;92.00;;;;;;5062206;28;19928;-75
2023/04/16 05:14:54;;;;;;;;;;;9.20;92.00;;;;;;5064651;28;20458;-76
2023/04/16 05:17:20;;;;;;;;;;;9.20;92.00;;;;;;5063746;28;19929;-76
2023/04/16 05:19:47;;;;;;;;;;;9.20;92.00;;;;;;5063009;28;19936;-76
2023/04/16 05:22:17;;;;;;;;;;;9.20;92.00;;;;;;5062008;28;20002;-76
2023/04/16 05:24:44;;;;;;;;;;;9.20;92.00;;;;;;5072243;28;19929;-76
2023/04/16 05:27:10;;;;;;;;;;;9.20;92.00;;;;;;5063962;28;19932;-77
2023/04/16 05:29:37;;;;;;;;;;;9.20;92.00;;;;;;5070093;28;19929;-76
2023/04/16 05:32:03;;;;;;;;;;;9.20;92.00;;;;;;5060429;28;19932;-76
2023/04/16 05:34:30;;;;;;;;;;;9.20;92.10;;;;;;5069416;28;19932;-76
2023/04/16 05:36:57;;;;;;;;;;;9.20;92.00;;;;;;5060415;28;19972;-76
2023/04/16 05:39:25;;;;;;;;;;;9.20;92.00;;;;;;5065468;28;19973;-76
2023/04/16 05:41:51;;;;;;;;;;;9.20;92.00;;;;;;5062690;28;20023;-75
2023/04/16 05:44:18;;;;;;;;;;;9.10;92.00;;;;;;5062666;28;19932;-76
2023/04/16 05:46:44;;;;;;;;;;;9.20;92.00;;;;;;5062542;28;19928;-76
2023/04/16 05:49:11;;;;;;;;;;;9.20;92.10;;;;;;5065545;28;19924;-76
2023/04/16 05:51:37;;;;;;;;;;;9.20;92.10;;;;;;5062242;28;19931;-76
2023/04/16 05:54:04;;;;;;;;;;;9.20;92.10;;;;;;5062741;28;19932;-73
2023/04/16 05:56:32;;;;;;;;;;;9.20;92.10;;;;;;5058594;28;19929;-76
2023/04/16 05:58:58;;;;;;;;;;;9.20;92.10;;;;;;5060863;28;19936;-76
2023/04/16 06:01:25;;;;;;;;;;;9.10;92.40;;;;;;5065275;28;19932;-75
2023/04/16 06:03:51;;;;;;;;;;;9.20;92.10;;;;;;5063956;28;19932;-76
2023/04/16 06:06:18;;;;;;;;;;;9.10;92.00;;;;;;5059351;28;20098;-76
2023/04/16 06:08:44;;;;;;;;;;;9.10;92.00;;;;;;5062803;28;20416;-76
2023/04/16 06:11:11;;;;;;;;;;;9.20;92.00;;;;;;5057344;28;19932;-76
2023/04/16 06:13:39;;;;;;;;;;;9.10;92.00;;;;;;5056650;28;19924;-73
2023/04/16 06:16:06;;;;;;;;;;;9.10;92.00;;;;;;5058376;28;19939;-76
2023/04/16 06:18:32;;;;;;;;;;;9.10;92.00;;;;;;5064729;28;19971;-75
2023/04/16 06:20:59;;;;;;;;;;;9.10;92.00;;;;;;5060231;28;19928;-76
2023/04/16 06:23:26;;;;;;;;;;;9.10;92.00;;;;;;5065265;28;19977;-75
2023/04/16 06:25:53;;;;;;;;;;;9.10;92.00;;;;;;5062754;28;19936;-76
2023/04/16 06:28:19;;;;;;;;;;;9.10;92.00;;;;;;5056470;28;20565;-77
2023/04/16 06:30:47;;;;;;;;;;;9.10;91.90;;;;;;5056941;28;19932;-76
2023/04/16 06:33:14;;;;;;;;;;;9.20;91.90;;;;;;5060023;28;19932;-76
2023/04/16 06:35:40;;;;;;;;;;;9.10;91.90;;;;;;5060693;28;19933;-76
2023/04/16 06:38:07;;;;;;;;;;;9.10;91.80;;;;;;5064695;28;19928;-76
2023/04/16 06:40:35;;;;;;;;;;;9.10;91.80;;;;;;5063031;28;19970;-75
2023/04/16 06:43:02;;;;;;;;;;;9.10;91.80;;;;;;5063497;28;19939;-76
2023/04/16 06:45:28;;;;;;;;;;;9.20;91.90;;;;;;5060884;28;19944;-76
2023/04/16 06:47:57;;;;;;;;;;;9.10;91.80;;;;;;5052985;28;19928;-74
2023/04/16 06:50:25;;;;;;;;;;;9.20;91.90;;;;;;5056407;28;19928;-76
2023/04/16 06:52:51;;;;;;;;;;;9.10;91.80;;;;;;5058215;28;19939;-76
2023/04/16 06:55:18;;;;;;;;;;;9.10;91.80;;;;;;5063785;28;19928;-76
2023/04/16 06:57:44;;;;;;;;;;;9.10;91.80;;;;;;5058675;28;19929;-76
2023/04/16 07:00:11;;;;;;;;;;;9.10;91.90;;;;;;5062675;28;19928;-76
2023/04/16 07:02:38;;;;;;;;;;;9.10;91.90;;;;;;5057187;28;20601;-73
2023/04/16 07:05:07;;;;;;;;;;;9.00;91.80;;;;;;5056046;28;19936;-76
2023/04/16 07:07:34;;;;;;;;;;;9.10;91.90;;;;;;5062149;28;20407;-76
2023/04/16 07:10:01;;;;;;;;;;;9.10;91.90;;;;;;5062084;28;19968;-77
2023/04/16 07:12:27;;;;;;;;;;;9.10;91.90;;;;;;5035605;28;19928;-75
2023/04/16 07:14:54;;;;;;;;;;;9.20;91.90;;;;;;5054845;28;20303;-75
2023/04/16 07:17:21;;;;;;;;;;;9.10;91.90;;;;;;5050179;28;19928;-76
2023/04/16 07:19:47;;;;;;;;;;;9.20;91.90;;;;;;5047899;28;19929;-78
2023/04/16 07:22:15;;;;;;;;;;;9.10;91.90;;;;;;5051050;28;19932;-77
2023/04/16 07:24:42;;;;;;;;;;;9.10;91.90;;;;;;5045920;28;19975;-76
2023/04/16 07:27:08;;;;;;;;;;;9.20;91.90;;;;;;5050447;28;19932;-78
2023/04/16 07:29:35;;;;;;;;;;;9.10;91.90;;;;;;5059850;28;19928;-77
2023/04/16 07:32:01;;;;;;;;;;;9.20;91.90;;;;;;5032917;28;19935;-76
2023/04/16 07:34:28;;;;;;;;;;;9.20;92.00;;;;;;5028173;28;19928;-77
2023/04/16 07:36:55;;;;;;;;;;;9.10;92.10;;;;;;5026333;28;19933;-77
2023/04/16 07:39:22;;;;;;;;;;;9.10;91.90;;;;;;5025280;28;19935;-78
2023/04/16 07:41:49;;;;;;;;;;;9.20;92.00;;;;;;5020702;28;20888;-76
2023/04/16 07:44:16;;;;;;;;;;;9.20;92.00;;;;;;5025608;28;19939;-77
2023/04/16 07:46:42;;;;;;;;;;;9.20;92.00;;;;;;5028987;28;19940;-77
2023/04/16 07:49:09;;;;;;;;;;;9.20;92.30;;;;;;5027613;28;19936;-77
2023/04/16 07:51:35;;;;;;;;;;;9.10;92.00;;;;;;5027892;28;19933;-77
2023/04/16 07:54:02;;;;;;;;;;;9.20;91.90;;;;;;5035704;28;20640;-77
2023/04/16 07:56:30;;;;;;;;;;;9.20;91.90;;;;;;5032573;28;19928;-77
2023/04/16 07:58:56;;;;;;;;;;;9.20;91.90;;;;;;5029940;28;20309;-74
2023/04/16 08:01:23;;;;;;;;;;;9.20;92.30;;;;;;5028207;28;20486;-77
2023/04/16 08:03:49;;;;;;;;;;;9.20;92.00;;;;;;5038989;28;20434;-78
2023/04/16 08:06:16;;;;;;;;;;;9.20;91.90;;;;;;5036603;28;19928;-77
2023/04/16 08:08:42;;;;;;;;;;;9.20;91.90;;;;;;5037136;28;19928;-77
2023/04/16 08:11:09;;;;;;;;;;;9.20;92.00;;;;;;5037275;28;19924;-76
2023/04/16 08:13:37;;;;;;;;;;;9.20;92.00;;;;;;5025111;28;19933;-77
2023/04/16 08:16:04;;;;;;;;;;;9.20;92.00;;;;;;5033886;28;19933;-77
2023/04/16 08:18:30;;;;;;;;;;;9.20;92.00;;;;;;5047609;28;20549;-76
2023/04/16 08:20:57;;;;;;;;;;;9.20;92.10;;;;;;5040231;28;19936;-77
2023/04/16 08:23:23;;;;;;;;;;;9.20;92.10;;;;;;5043038;28;19928;-77
2023/04/16 08:25:50;;;;;;;;;;;9.20;92.20;;;;;;5047477;28;19929;-77
2023/04/16 08:28:16;;;;;;;;;;;9.20;92.20;;;;;;5049470;28;19932;-76
2023/04/16 08:30:45;;;;;;;;;;;9.20;92.20;;;;;;5042645;28;19933;-76
2023/04/16 08:33:12;;;;;;;;;;;9.20;92.20;;;;;;5017105;28;19928;-78
2023/04/16 08:35:39;;;;;;;;;;;9.30;92.30;;;;;;5028451;28;19998;-76
2023/04/16 08:38:06;;;;;;;;;;;9.20;92.30;;;;;;5035338;28;19929;-78
2023/04/16 08:40:34;;;;;;;;;;;9.30;92.20;;;;;;5032209;28;20373;-75
2023/04/16 08:43:02;;;;;;;;;;;9.30;92.30;;;;;;5032919;28;19936;-75
2023/04/16 08:45:29;;;;;;;;;;;9.30;92.30;;;;;;5030254;28;19939;-78
2023/04/16 08:47:58;;;;;;;;;;;9.30;92.30;;;;;;5032904;28;19947;-76
2023/04/16 08:50:25;;;;;;;;;;;9.30;92.30;;;;;;5038183;28;19936;-76
2023/04/16 08:52:52;;;;;;;;;;;9.30;92.30;;;;;;5030138;28;20280;-77
2023/04/16 08:55:21;;;;;;;;;;;9.30;92.30;;;;;;5038429;28;19932;-77
2023/04/16 08:57:50;;;;;;;;;;;9.30;92.20;;;;;;5029037;28;19933;-77
2023/04/16 09:00:16;;;;;;;;;;;9.30;92.30;;;;;;5045653;28;19943;-77
2023/04/16 09:02:43;;;;;;;;;;;9.30;92.30;;;;;;5047732;28;19940;-77
2023/04/16 09:05:15;;;;;;;;;;;9.30;92.30;;;;;;5043767;28;19932;-76
2023/04/16 09:07:42;;;;;;;;;;;9.30;92.30;;;;;;5043448;28;19937;-77
2023/04/16 09:10:09;;;;;;;;;;;9.30;92.30;;;;;;5025432;28;19932;-77
2023/04/16 09:12:36;;;;;;;;;;;9.30;92.30;;;;;;5017105;28;19932;-76
2023/04/16 09:15:03;;;;;;;;;;;9.30;92.20;;;;;;5039001;28;19924;-75
2023/04/16 09:17:31;;;;;;;;;;;9.30;92.30;;;;;;5037798;28;20308;-77
2023/04/16 09:19:57;;;;;;;;;;;9.30;92.30;;;;;;5036394;28;19939;-77
2023/04/16 09:22:25;;;;;;;;;;;9.30;92.30;;;;;;5034534;28;20393;-78
2023/04/16 09:24:52;;;;;;;;;;;9.40;92.30;;;;;;5036450;28;20430;-79
2023/04/16 09:27:18;;;;;;;;;;;9.30;92.30;;;;;;5038356;28;19933;-78
2023/04/16 09:29:45;;;;;;;;;;;9.30;92.20;;;;;;5034042;28;20580;-77
2023/04/16 09:32:12;;;;;;;;;;;9.40;92.20;;;;;;5035528;28;19936;-78
2023/04/16 09:34:53;;;;;;;;;;;9.30;92.10;;;;;;5033388;28;19940;-77
2023/04/16 09:37:20;;;;;;;;;;;9.40;92.20;;;;;;5030179;28;19935;-76
2023/04/16 09:39:52;;;;;;;;;;;9.40;92.20;;;;;;5030829;28;19929;-77
2023/04/16 09:42:22;;;;;;;;;;;9.40;92.30;;;;;;5034329;28;20024;-77
2023/04/16 09:44:49;;;;;;;;;;;9.40;92.40;;;;;;5038865;28;20047;-76
2023/04/16 09:47:15;;;;;;;;;;;9.40;92.40;;;;;;5034067;28;19975;-71
2023/04/16 09:49:42;;;;;;;;;;;9.40;92.40;;;;;;5038806;28;19928;-71
2023/04/16 09:52:12;;;;;;;;;;;9.40;92.50;;;;;;5042035;28;19940;-73
2023/04/16 09:54:41;;;;;;;;;;;9.40;92.50;;;;;;5037549;28;19937;-72
2023/04/16 09:57:09;;;;;;;;;;;9.40;92.50;;;;;;5040330;28;19964;-72
2023/04/16 09:59:36;;;;;;;;;;;9.40;92.50;;;;;;5044490;28;19940;-72
2023/04/16 10:02:02;;;;;;;;;;;9.40;92.60;;;;;;5046982;28;19935;-71
2023/04/16 10:04:29;;;;;;;;;;;9.40;92.60;;;;;;5048716;28;19933;-73
2023/04/16 10:07:05;;;;;;;;;;;9.50;92.70;;;;;;5040827;28;19936;-71
2023/04/16 10:09:32;;;;;;;;;;;9.50;92.70;;;;;;5048007;28;19932;-71
2023/04/16 10:11:59;;;;;;;;;;;9.50;92.90;;;;;;5039347;28;20032;-72
2023/04/16 10:14:27;;;;;;;;;;;9.50;92.80;;;;;;5041608;28;19929;-71
2023/04/16 10:16:53;;;;;;;;;;;9.50;92.80;;;;;;5046104;28;19936;-71
2023/04/16 10:19:20;;;;;;;;;;;9.50;92.80;;;;;;5033646;28;19929;-73
2023/04/16 10:21:47;;;;;;;;;;;9.50;92.80;;;;;;5042075;28;19936;-71
2023/04/16 10:24:15;;;;;;;;;;;9.50;92.70;;;;;;5044108;28;19940;-71
2023/04/16 10:26:42;;;;;;;;;;;9.50;92.80;;;;;;5042873;28;20485;-72
2023/04/16 10:29:09;;;;;;;;;;;9.50;92.90;;;;;;5038924;28;19939;-72
2023/04/16 10:31:37;;;;;;;;;;;9.50;93.00;;;;;;5037620;28;19937;-71
2023/04/16 10:34:04;;;;;;;;;;;9.50;93.00;;;;;;5043225;28;19933;-71
2023/04/16 10:36:35;;;;;;;;;;;9.50;93.00;;;;;;5043330;28;19929;-72
2023/04/16 10:39:02;;;;;;;;;;;9.50;93.10;;;;;;5042904;28;19939;-72
2023/04/16 10:41:32;;;;;;;;;;;9.50;93.40;;;;;;5045615;28;19933;-72
2023/04/16 10:44:04;;;;;;;;;;;9.50;93.40;;;;;;5035216;28;19933;-73
2023/04/16 10:46:31;;;;;;;;;;;9.50;93.50;;;;;;5038031;28;19932;-72
2023/04/16 10:49:01;;;;;;;;;;;9.50;93.40;;;;;;5042917;28;19935;-71
2023/04/16 10:51:30;;;;;;;;;;;9.50;93.40;;;;;;5043041;28;19939;-73
2023/04/16 10:53:57;;;;;;;;;;;9.50;93.40;;;;;;5045073;28;20019;-72
2023/04/16 10:56:24;;;;;;;;;;;9.50;93.50;;;;;;5043530;28;19929;-71
2023/04/16 10:58:52;;;;;;;;;;;9.50;93.50;;;;;;5037002;28;19932;-71
2023/04/16 11:01:26;;;;;;;;;;;9.60;93.50;;;;;;5037147;28;20786;-72
2023/04/16 11:03:52;;;;;;;;;;;9.50;93.50;;;;;;5046689;28;19928;-72
2023/04/16 11:06:25;;;;;;;;;;;9.60;93.60;;;;;;5032628;28;19925;-72
2023/04/16 11:08:52;;;;;;;;;;;9.50;93.60;;;;;;5042357;28;19928;-73
2023/04/16 11:11:19;;;;;;;;;;;9.50;93.70;;;;;;5039900;28;19928;-72
2023/04/16 11:13:46;;;;;;;;;;;9.60;93.80;;;;;;5038832;28;19935;-72
2023/04/16 11:16:13;;;;;;;;;;;9.50;93.80;;;;;;5042499;28;20015;-72
2023/04/16 11:18:40;;;;;;;;;;;9.60;93.80;;;;;;5044123;28;19933;-72
2023/04/16 11:21:10;;;;;;;;;;;9.60;93.90;;;;;;5029342;28;21217;-71
2023/04/16 11:23:48;;;;;;;;;;;9.60;93.80;;;;;;5040773;28;20020;-71
2023/04/16 11:26:24;;;;;;;;;;;9.50;93.80;;;;;;5040834;28;20023;-71
2023/04/16 11:28:51;;;;;;;;;;;9.60;93.90;;;;;;5042000;28;19932;-72
2023/04/16 11:31:18;;;;;;;;;;;9.50;93.90;;;;;;5042818;28;20851;-72
2023/04/16 11:33:44;;;;;;;;;;;9.50;94.10;;;;;;5044095;28;19929;-71
2023/04/16 11:36:11;;;;;;;;;;;9.50;94.10;;;;;;5039809;28;19935;-71
2023/04/16 11:38:39;;;;;;;;;;;9.60;94.10;;;;;;5044915;28;19929;-72
2023/04/16 11:41:07;;;;;;;;;;;9.50;94.10;;;;;;5041730;28;19929;-72
2023/04/16 11:43:34;;;;;;;;;;;9.60;94.10;;;;;;5039894;28;19936;-72
2023/04/16 11:46:01;;;;;;;;;;;9.60;94.10;;;;;;5043520;28;19956;-72
2023/04/16 11:48:43;;;;;;;;;;;9.50;94.00;;;;;;5041823;28;19936;-71
2023/04/16 11:51:09;;;;;;;;;;;9.60;94.00;;;;;;5039542;28;19940;-72
2023/04/16 11:53:36;;;;;;;;;;;9.60;94.10;;;;;;5041490;28;19940;-72
2023/04/16 11:56:03;;;;;;;;;;;9.60;94.20;;;;;;5042086;28;20302;-71
2023/04/16 11:58:31;;;;;;;;;;;9.60;94.20;;;;;;5045410;28;19964;-71
2023/04/16 12:00:59;;;;;;;;;;;9.60;94.20;;;;;;5048065;28;19933;-72
2023/04/16 12:03:37;;;;;;;;;;;9.60;94.30;;;;;;5043535;28;19974;-71
2023/04/16 12:06:07;;;;;;;;;;;9.60;94.40;;;;;;5039886;28;19936;-71
2023/04/16 12:08:34;;;;;;;;;;;9.60;94.40;;;;;;5037977;28;19940;-72
2023/04/16 12:11:00;;;;;;;;;;;9.60;94.40;;;;;;5045142;28;19933;-71
2023/04/16 12:13:27;;;;;;;;;;;9.60;94.30;;;;;;5043464;28;19929;-71
2023/04/16 12:15:55;;;;;;;;;;;9.60;94.30;;;;;;5050189;28;19979;-71
2023/04/16 12:18:23;;;;;;;;;;;9.60;94.40;;;;;;5046548;28;19938;-72
2023/04/16 12:20:50;;;;;;;;;;;9.60;94.40;;;;;;5045446;28;19933;-73
2023/04/16 12:23:24;;;;;;;;;;;9.60;94.40;;;;;;5041708;28;19982;-72
2023/04/16 12:25:50;;;;;;;;;;;9.60;94.40;;;;;;5044808;28;20559;-72
2023/04/16 12:28:26;;;;;;;;;;;9.60;94.30;;;;;;5045617;28;19924;-72
2023/04/16 12:30:52;;;;;;;;;;;9.60;94.30;;;;;;5041683;28;19936;-72
2023/04/16 12:33:20;;;;;;;;;;;9.60;94.30;;;;;;5045143;28;19937;-72
2023/04/16 12:35:47;;;;;;;;;;;9.60;94.30;;;;;;5045025;28;19975;-72
2023/04/16 12:38:14;;;;;;;;;;;9.50;94.30;;;;;;5044818;28;19936;-72
2023/04/16 12:40:40;;;;;;;;;;;9.60;94.40;;;;;;5044864;28;19937;-72
2023/04/16 12:43:07;;;;;;;;;;;9.60;94.50;;;;;;5044186;28;19929;-72
2023/04/16 12:45:33;;;;;;;;;;;9.60;94.50;;;;;;5043209;28;20067;-72
2023/04/16 12:48:00;;;;;;;;;;;9.60;94.50;;;;;;5044300;28;19933;-72
2023/04/16 12:50:28;;;;;;;;;;;9.60;94.50;;;;;;5048052;28;19925;-72
2023/04/16 12:52:55;;;;;;;;;;;9.60;94.40;;;;;;5040157;28;20035;-71
2023/04/16 12:55:21;;;;;;;;;;;9.60;94.40;;;;;;5044937;28;20310;-72
2023/04/16 12:57:48;;;;;;;;;;;9.60;94.40;;;;;;5041425;28;20157;-71
2023/04/16 13:00:16;;;;;;;;;;;9.60;94.50;;;;;;5048682;28;20317;-71
2023/04/16 13:02:42;;;;;;;;;;;9.60;94.50;;;;;;5040636;28;20019;-71
2023/04/16 13:05:09;;;;;;;;;;;9.60;94.50;;;;;;5049348;28;20602;-72
2023/04/16 13:07:37;;;;;;;;;;;9.60;94.50;;;;;;5043574;28;20457;-71
2023/04/16 13:10:03;;;;;;;;;;;9.60;94.40;;;;;;5047321;28;20676;-71
2023/04/16 13:12:31;;;;;;;;;;;9.60;94.40;;;;;;5038607;28;20505;-71
2023/04/16 13:14:58;;;;;;;;;;;9.60;94.40;;;;;;5036196;28;20403;-72
2023/04/16 13:17:25;;;;;;;;;;;9.60;94.40;;;;;;5044636;28;19929;-70
2023/04/16 13:19:51;;;;;;;;;;;9.60;94.40;;;;;;5052094;28;19936;-71
2023/04/16 13:22:18;;;;;;;;;;;9.50;94.40;;;;;;5040232;28;19925;-71
2023/04/16 13:24:45;;;;;;;;;;;9.60;94.40;;;;;;5051040;28;19929;-71
2023/04/16 13:27:14;;;;;;;;;;;9.60;94.40;;;;;;5039877;28;19929;-70
2023/04/16 13:29:41;;;;;;;;;;;9.60;94.40;;;;;;5047327;28;19986;-70
2023/04/16 13:32:08;;;;;;;;;;;9.60;94.40;;;;;;5043467;28;19936;-70
2023/04/16 13:34:34;;;;;;;;;;;9.60;94.40;;;;;;5045451;28;20303;-69
2023/04/16 13:37:01;;;;;;;;;;;9.60;94.40;;;;;;5041162;28;19939;-69
2023/04/16 13:39:27;;;;;;;;;;;9.60;94.40;;;;;;5043184;28;19944;-71
2023/04/16 13:41:55;;;;;;;;;;;9.60;94.40;;;;;;5040168;28;19928;-70
2023/04/16 13:44:22;;;;;;;;;;;9.60;94.40;;;;;;5041957;28;19965;-71
2023/04/16 13:46:48;;;;;;;;;;;9.60;94.40;;;;;;5061823;28;20418;-71
2023/04/16 13:49:15;;;;;;;;;;;9.60;94.30;;;;;;5068970;28;20468;-72
2023/04/16 13:51:42;;;;;;;;;;;9.60;94.30;;;;;;5063720;28;19928;-71
2023/04/16 13:54:09;;;;;;;;;;;9.60;94.30;;;;;;5065593;28;19928;-72
2023/04/16 13:56:36;;;;;;;;;;;9.60;94.30;;;;;;5068224;28;20050;-70
2023/04/16 13:59:04;;;;;;;;;;;9.70;94.30;;;;;;5059871;28;22104;-73
2023/04/16 14:01:30;;;;;;;;;;;9.60;94.30;;;;;;5052042;28;20124;-72
2023/04/16 14:03:58;;;;;;;;;;;9.60;94.30;;;;;;5043295;28;19928;-72
2023/04/16 14:06:24;;;;;;;;;;;9.70;94.30;;;;;;5041820;28;19932;-71
2023/04/16 14:08:51;;;;;;;;;;;9.60;94.30;;;;;;5038708;28;20394;-72
2023/04/16 14:11:17;;;;;;;;;;;9.60;94.30;;;;;;5041314;28;20043;-71
2023/04/16 14:13:44;;;;;;;;;;;9.60;94.30;;;;;;5047269;28;19935;-70
2023/04/16 14:16:12;;;;;;;;;;;9.60;94.30;;;;;;5043930;28;20372;-72
2023/04/16 14:18:41;;;;;;;;;;;9.60;94.30;;;;;;5040694;28;20575;-71
2023/04/16 14:21:07;;;;;;;;;;;9.70;94.30;;;;;;5041376;28;20451;-71
2023/04/16 14:23:34;;;;;;;;;;;9.60;94.30;;;;;;5044102;28;19975;-72
2023/04/16 14:26:00;;;;;;;;;;;9.70;94.40;;;;;;5043159;28;19929;-71
2023/04/16 14:28:27;;;;;;;;;;;9.70;94.40;;;;;;5040933;28;19929;-71
2023/04/16 14:30:53;;;;;;;;;;;9.70;94.40;;;;;;5042817;28;19928;-71